Time;durP1;ratioP1;P1;durP2;ratioP2;P2;SDS_P1;SDS_P2;PMS_P1;PMS_P2;Temp;Humidity;BMP_temperature;BMP_pressure;BME280_temperature;BME280_humidity;BME280_pressure;Samples;Min_cycle;Max_cycle;Signal;HPM_P1;HPM_P2
2021/08/18 04:01:18;;;;;;;4.27;3.97;;;16.50;99.90;;;;;;5612340;22;20850;-63
2021/08/18 04:03:45;;;;;;;4.10;3.80;;;16.50;99.90;;;;;;4995907;28;20959;-63
2021/08/18 04:06:11;;;;;;;4.90;4.40;;;16.50;99.90;;;;;;4996254;28;20873;-63
2021/08/18 04:08:38;;;;;;;4.33;3.93;;;16.50;99.90;;;;;;4995834;28;20450;-63
2021/08/18 04:11:09;;;;;;;4.83;4.10;;;16.50;99.90;;;;;;4996270;28;20875;-63
2021/08/18 04:13:36;;;;;;;3.70;3.40;;;16.50;99.90;;;;;;4996460;28;20440;-63
2021/08/18 04:16:03;;;;;;;4.80;3.87;;;16.40;99.90;;;;;;5013873;28;20449;-62
2021/08/18 04:18:31;;;;;;;7.97;3.20;;;16.40;99.90;;;;;;5014726;28;20449;-62
2021/08/18 04:20:57;;;;;;;3.97;3.57;;;16.40;99.90;;;;;;5014598;28;20458;-62
2021/08/18 04:23:24;;;;;;;3.63;3.33;;;16.30;99.90;;;;;;5001061;28;20457;-63
2021/08/18 04:25:51;;;;;;;3.23;2.93;;;16.30;99.90;;;;;;4995956;28;20484;-63
2021/08/18 04:28:17;;;;;;;3.70;3.40;;;16.30;99.90;;;;;;4995804;28;20461;-63
2021/08/18 04:30:44;;;;;;;4.00;3.70;;;16.30;99.90;;;;;;4995423;28;20474;-63
2021/08/18 04:33:11;;;;;;;3.63;3.30;;;16.30;99.90;;;;;;4995400;28;20460;-63
2021/08/18 04:35:39;;;;;;;4.40;3.40;;;16.20;99.90;;;;;;4995421;28;20446;-64
2021/08/18 04:38:06;;;;;;;3.17;2.97;;;16.30;99.90;;;;;;4994830;28;20458;-63
2021/08/18 04:40:33;;;;;;;6.40;3.30;;;16.20;99.90;;;;;;4995335;28;20473;-63
2021/08/18 04:42:59;;;;;;;3.57;3.27;;;16.20;99.90;;;;;;4995301;28;20465;-63
2021/08/18 04:45:26;;;;;;;3.20;3.00;;;16.20;99.90;;;;;;4995044;28;20501;-64
2021/08/18 04:47:53;;;;;;;3.50;3.20;;;16.20;99.90;;;;;;4994984;28;20457;-63
2021/08/18 04:50:20;;;;;;;3.10;2.90;;;16.10;99.90;;;;;;4995028;28;20438;-63
2021/08/18 04:52:48;;;;;;;3.23;2.97;;;16.10;99.90;;;;;;4995011;28;20461;-63
2021/08/18 04:55:16;;;;;;;3.47;3.17;;;16.10;99.90;;;;;;4995047;28;20449;-63
2021/08/18 04:57:42;;;;;;;5.63;2.73;;;16.10;99.90;;;;;;4994902;28;20465;-63
2021/08/18 05:00:11;;;;;;;3.10;2.90;;;16.10;99.90;;;;;;4994973;28;20461;-62
2021/08/18 05:02:37;;;;;;;6.40;3.87;;;16.10;99.90;;;;;;4994752;28;20478;-62
2021/08/18 05:05:05;;;;;;;6.03;4.60;;;16.10;99.90;;;;;;4994584;28;20478;-62
2021/08/18 05:07:32;;;;;;;6.13;4.70;;;16.10;99.90;;;;;;4994817;28;20461;-62
2021/08/18 05:10:00;;;;;;;8.93;4.60;;;16.00;99.90;;;;;;4994616;28;20461;-63
2021/08/18 05:12:27;;;;;;;6.87;6.17;;;16.00;99.90;;;;;;4994336;28;20984;-62
2021/08/18 05:14:54;;;;;;;6.50;5.67;;;16.00;99.90;;;;;;4994097;28;20476;-62
2021/08/18 05:17:21;;;;;;;7.13;6.43;;;16.00;99.90;;;;;;4994194;28;20803;-62
2021/08/18 05:19:47;;;;;;;6.53;5.80;;;16.00;99.90;;;;;;4994620;28;20825;-62
2021/08/18 05:22:14;;;;;;;7.63;6.00;;;16.00;99.90;;;;;;4994518;28;20473;-62
2021/08/18 05:24:41;;;;;;;6.87;6.20;;;15.90;99.90;;;;;;4994571;28;20854;-62
2021/08/18 05:27:09;;;;;;;7.47;6.20;;;15.90;99.90;;;;;;4994803;28;20458;-62
2021/08/18 05:29:36;;;;;;;10.90;7.73;;;15.90;99.90;;;;;;4994473;28;20461;-62
2021/08/18 05:32:03;;;;;;;8.33;6.50;;;15.80;99.90;;;;;;4994265;28;20973;-62
2021/08/18 05:34:30;;;;;;;7.37;6.30;;;15.80;99.90;;;;;;4995148;28;20453;-63
2021/08/18 05:36:56;;;;;;;7.80;6.27;;;15.80;99.90;;;;;;4994527;28;20458;-62
2021/08/18 05:39:23;;;;;;;9.23;6.80;;;15.80;99.90;;;;;;4994392;28;20464;-62
2021/08/18 05:41:50;;;;;;;6.80;5.80;;;15.80;99.90;;;;;;4994353;28;20478;-62
2021/08/18 05:44:18;;;;;;;6.33;5.63;;;15.80;99.90;;;;;;4994181;28;20457;-63
2021/08/18 05:46:44;;;;;;;6.80;6.10;;;15.70;99.90;;;;;;4994309;28;20458;-62
2021/08/18 05:49:18;;;;;;;7.70;6.40;;;15.80;99.90;;;;;;4994283;28;20454;-62
2021/08/18 05:51:45;;;;;;;6.83;6.13;;;15.80;99.90;;;;;;4994394;28;20524;-63
2021/08/18 05:54:12;;;;;;;8.07;7.27;;;15.80;99.90;;;;;;4994413;28;20464;-62
2021/08/18 05:56:38;;;;;;;7.40;6.30;;;15.90;99.90;;;;;;4994270;28;20790;-62
2021/08/18 05:59:05;;;;;;;10.90;7.27;;;16.00;99.90;;;;;;4994304;28;20860;-62
2021/08/18 06:01:33;;;;;;;8.43;6.57;;;16.10;99.90;;;;;;4993857;28;20492;-62
2021/08/18 06:04:00;;;;;;;7.37;5.83;;;16.10;99.90;;;;;;4993909;28;20545;-62
2021/08/18 06:06:28;;;;;;;9.70;6.77;;;16.10;99.90;;;;;;4994118;28;20812;-62
2021/08/18 06:08:54;;;;;;;8.50;6.77;;;16.20;99.90;;;;;;4994097;28;20453;-64
2021/08/18 06:11:21;;;;;;;7.57;5.93;;;16.20;99.90;;;;;;4994102;28;20489;-64
2021/08/18 06:13:48;;;;;;;9.10;7.40;;;16.30;99.90;;;;;;4994102;28;20457;-61
2021/08/18 06:16:14;;;;;;;7.30;6.60;;;16.40;99.90;;;;;;4993996;28;20445;-62
2021/08/18 06:18:42;;;;;;;7.93;6.67;;;16.40;99.90;;;;;;4994112;28;20454;-62
2021/08/18 06:21:09;;;;;;;7.63;6.60;;;16.50;99.90;;;;;;4993911;28;20474;-62
2021/08/18 06:23:36;;;;;;;7.63;5.93;;;16.50;99.90;;;;;;4993607;28;20945;-64
2021/08/18 06:26:03;;;;;;;6.83;6.13;;;16.60;99.90;;;;;;4996850;28;20820;-63
2021/08/18 06:28:29;;;;;;;8.00;6.00;;;16.70;99.90;;;;;;4997712;28;20512;-62
2021/08/18 06:30:57;;;;;;;5.20;4.33;;;16.70;99.90;;;;;;5002933;28;20477;-63
2021/08/18 06:33:24;;;;;;;4.67;4.30;;;16.80;99.90;;;;;;5006264;28;20505;-64
2021/08/18 06:35:52;;;;;;;3.97;3.40;;;16.80;99.90;;;;;;4997515;28;20452;-63
2021/08/18 06:38:19;;;;;;;3.97;3.50;;;16.70;99.90;;;;;;4997586;28;20458;-62
2021/08/18 06:40:45;;;;;;;3.53;3.23;;;16.80;99.90;;;;;;4997263;28;20481;-63
2021/08/18 06:43:12;;;;;;;5.53;3.60;;;16.80;99.90;;;;;;4998034;28;20461;-62
2021/08/18 06:45:39;;;;;;;3.77;3.47;;;16.90;99.90;;;;;;4999629;28;20484;-62
2021/08/18 06:48:06;;;;;;;4.00;3.30;;;16.80;99.90;;;;;;4997905;28;20457;-62
2021/08/18 06:50:32;;;;;;;4.20;3.80;;;16.80;99.90;;;;;;4997558;28;20481;-62
2021/08/18 06:53:00;;;;;;;4.17;3.67;;;16.90;99.90;;;;;;4997009;28;20457;-62
2021/08/18 06:55:27;;;;;;;3.80;3.50;;;16.90;99.90;;;;;;4997006;28;20453;-63
2021/08/18 06:57:54;;;;;;;4.57;4.00;;;16.90;99.90;;;;;;4996875;28;20795;-62
2021/08/18 07:00:21;;;;;;;3.50;3.20;;;17.00;99.90;;;;;;4996720;28;20979;-62
2021/08/18 07:02:51;;;;;;;5.10;3.53;;;17.00;99.90;;;;;;4997174;28;20446;-62
2021/08/18 07:05:19;;;;;;;3.67;3.37;;;17.00;99.90;;;;;;4996658;28;20980;-62
2021/08/18 07:07:46;;;;;;;3.73;3.30;;;17.00;99.90;;;;;;4996985;28;20512;-62
2021/08/18 07:10:17;;;;;;;4.50;3.97;;;17.10;99.90;;;;;;4996882;28;20458;-62
2021/08/18 07:12:44;;;;;;;5.33;4.10;;;17.20;99.90;;;;;;4996955;28;20449;-62
2021/08/18 07:15:12;;;;;;;3.83;3.50;;;17.20;99.90;;;;;;4996865;28;20568;-62
2021/08/18 07:17:38;;;;;;;4.07;3.77;;;17.40;99.90;;;;;;4996857;28;20485;-62
2021/08/18 07:20:06;;;;;;;4.90;4.00;;;17.50;99.90;;;;;;4996814;28;20457;-62
2021/08/18 07:22:33;;;;;;;3.27;2.97;;;17.70;99.90;;;;;;4996711;28;20509;-62
2021/08/18 07:25:00;;;;;;;3.60;3.10;;;17.80;99.90;;;;;;4996645;28;20527;-62
2021/08/18 07:27:29;;;;;;;3.30;3.00;;;17.90;99.90;;;;;;4996550;28;20509;-63
2021/08/18 07:29:56;;;;;;;3.30;3.10;;;18.00;99.90;;;;;;4996651;28;20457;-62
2021/08/18 07:32:23;;;;;;;3.40;3.10;;;18.20;99.90;;;;;;4996482;28;20532;-61
2021/08/18 07:34:50;;;;;;;3.20;3.00;;;18.30;99.90;;;;;;4996324;28;20461;-62
2021/08/18 07:37:17;;;;;;;4.67;3.13;;;18.30;99.90;;;;;;4995670;28;20481;-62
2021/08/18 07:39:44;;;;;;;5.23;2.80;;;18.50;99.90;;;;;;4996385;28;20453;-62
2021/08/18 07:42:11;;;;;;;2.80;2.60;;;18.80;99.90;;;;;;4996383;28;20516;-62
2021/08/18 07:44:39;;;;;;;3.60;3.30;;;19.00;99.90;;;;;;4996330;28;20870;-62
2021/08/18 07:47:06;;;;;;;3.83;2.80;;;19.40;99.90;;;;;;4995925;28;20488;-62
2021/08/18 07:49:33;;;;;;;2.73;2.60;;;19.60;99.90;;;;;;4996932;28;20442;-61
2021/08/18 07:51:59;;;;;;;10.37;4.37;;;19.60;99.90;;;;;;4997016;28;20474;-62
2021/08/18 07:54:26;;;;;;;5.40;4.43;;;19.70;99.90;;;;;;4995872;28;20561;-62
2021/08/18 07:56:53;;;;;;;6.63;3.63;;;20.10;99.90;;;;;;4996821;28;20832;-62
2021/08/18 07:59:19;;;;;;;4.20;2.70;;;20.50;99.90;;;;;;4996549;28;20920;-62
2021/08/18 08:01:47;;;;;;;2.63;2.43;;;20.60;99.90;;;;;;4995940;28;20482;-62
2021/08/18 08:04:14;;;;;;;2.50;2.30;;;20.60;99.90;;;;;;4995686;28;20955;-62
2021/08/18 08:06:41;;;;;;;2.47;2.37;;;20.40;99.90;;;;;;4995843;28;20532;-62
2021/08/18 08:09:07;;;;;;;3.07;2.30;;;20.60;99.90;;;;;;4995976;28;20449;-62
2021/08/18 08:11:34;;;;;;;3.00;2.30;;;20.80;99.90;;;;;;4996380;28;20501;-63
2021/08/18 08:14:01;;;;;;;2.37;2.17;;;20.90;99.90;;;;;;4996280;28;20458;-62
2021/08/18 08:16:27;;;;;;;3.23;2.83;;;21.00;99.90;;;;;;4995713;28;20956;-62
2021/08/18 08:18:56;;;;;;;3.13;2.50;;;21.00;99.90;;;;;;4995666;28;20465;-62
2021/08/18 08:21:24;;;;;;;2.03;1.93;;;20.90;99.90;;;;;;4995794;28;20486;-63
2021/08/18 08:23:51;;;;;;;2.50;2.30;;;20.90;99.90;;;;;;4995851;28;20492;-63
2021/08/18 08:26:18;;;;;;;3.77;2.20;;;20.80;99.90;;;;;;4996206;28;20477;-62
2021/08/18 08:28:44;;;;;;;1.90;1.80;;;20.60;99.90;;;;;;4995588;28;20453;-62
2021/08/18 08:31:11;;;;;;;2.13;1.90;;;20.60;99.90;;;;;;4995484;28;20481;-63
2021/08/18 08:33:38;;;;;;;1.80;1.70;;;20.60;99.90;;;;;;4995584;28;20458;-63
2021/08/18 08:36:06;;;;;;;2.27;1.70;;;20.70;99.90;;;;;;4995388;28;20450;-62
2021/08/18 08:38:33;;;;;;;1.57;1.47;;;20.80;99.90;;;;;;4997009;28;20960;-62
2021/08/18 08:41:00;;;;;;;1.10;1.03;;;21.00;99.90;;;;;;4999671;28;20470;-62
2021/08/18 08:43:27;;;;;;;0.80;0.80;;;21.20;99.90;;;;;;4995058;28;20488;-62
2021/08/18 08:45:53;;;;;;;0.93;0.90;;;21.20;99.90;;;;;;4994866;28;21010;-62
2021/08/18 08:48:21;;;;;;;0.83;0.83;;;21.10;99.90;;;;;;4993781;28;20454;-62
2021/08/18 08:50:49;;;;;;;0.87;0.83;;;21.00;99.90;;;;;;4994948;28;20466;-64
2021/08/18 08:53:17;;;;;;;0.80;0.80;;;21.10;99.90;;;;;;4994978;28;20461;-62
2021/08/18 08:55:46;;;;;;;0.80;0.80;;;21.20;99.90;;;;;;4994915;28;20477;-62
2021/08/18 08:58:12;;;;;;;1.27;0.80;;;21.40;99.90;;;;;;4994963;28;20461;-62
2021/08/18 09:00:39;;;;;;;0.80;0.80;;;21.40;99.90;;;;;;4994654;28;20896;-62
2021/08/18 09:03:11;;;;;;;1.20;0.57;;;21.60;99.90;;;;;;4994846;28;20449;-62
2021/08/18 09:05:39;;;;;;;1.23;0.80;;;22.00;99.90;;;;;;4994813;28;20482;-63
2021/08/18 09:08:10;;;;;;;0.57;0.57;;;22.10;99.90;;;;;;4994693;28;20973;-62
2021/08/18 09:10:38;;;;;;;1.97;0.97;;;22.20;99.90;;;;;;4994832;28;20506;-62
2021/08/18 09:13:12;;;;;;;1.50;0.90;;;22.10;99.90;;;;;;4994898;28;20461;-61
2021/08/18 09:15:39;;;;;;;1.00;1.00;;;21.90;99.90;;;;;;4994959;28;20461;-62
2021/08/18 09:18:06;;;;;;;0.80;0.80;;;21.70;99.90;;;;;;4994720;28;20457;-62
2021/08/18 09:20:34;;;;;;;1.10;1.10;;;21.80;99.90;;;;;;4995077;28;20477;-62
2021/08/18 09:23:02;;;;;;;0.83;0.83;;;21.80;99.90;;;;;;4995046;28;20925;-62
2021/08/18 09:25:30;;;;;;;1.20;1.20;;;21.90;99.90;;;;;;4994763;28;20461;-62
2021/08/18 09:28:17;;;;;;;1.80;1.70;;;21.90;99.90;;;;;;4995118;28;20946;-62
2021/08/18 09:30:45;;;;;;;0.90;0.90;;;22.10;99.90;;;;;;5006961;28;20481;-62
2021/08/18 09:33:13;;;;;;;1.87;1.67;;;22.30;99.90;;;;;;4997462;28;20460;-63
2021/08/18 09:35:41;;;;;;;0.90;0.90;;;22.40;99.90;;;;;;4994588;28;20821;-63
2021/08/18 09:38:10;;;;;;;1.00;1.00;;;22.40;99.90;;;;;;4994365;28;20457;-63
2021/08/18 09:40:39;;;;;;;1.03;1.03;;;22.40;99.90;;;;;;4994127;28;20485;-62
2021/08/18 09:43:14;;;;;;;1.90;1.10;;;22.30;99.90;;;;;;4994088;28;20967;-63
2021/08/18 09:45:44;;;;;;;1.10;1.10;;;22.40;99.90;;;;;;4994380;28;20452;-62
2021/08/18 09:48:12;;;;;;;1.20;1.20;;;22.30;99.90;;;;;;4994311;28;20887;-62
2021/08/18 09:50:51;;;;;;;1.10;1.10;;;22.30;99.90;;;;;;4994228;28;20469;-62
2021/08/18 09:53:20;;;;;;;3.43;1.20;;;22.00;99.90;;;;;;4993966;28;20819;-62
2021/08/18 09:55:56;;;;;;;1.30;1.30;;;22.10;99.90;;;;;;4994274;28;20454;-62
2021/08/18 09:58:32;;;;;;;2.47;1.37;;;21.80;99.90;;;;;;4994041;28;20917;-62
2021/08/18 10:01:02;;;;;;;1.00;1.00;;;21.90;99.90;;;;;;4997031;28;20484;-62
2021/08/18 10:03:29;;;;;;;1.20;1.10;;;22.00;99.90;;;;;;4998144;28;20450;-62
2021/08/18 10:05:57;;;;;;;1.13;1.13;;;21.90;99.90;;;;;;4997966;28;20481;-62
2021/08/18 10:08:24;;;;;;;1.20;1.20;;;21.80;99.90;;;;;;4997832;28;20960;-62
2021/08/18 10:10:52;;;;;;;1.50;1.50;;;21.90;99.90;;;;;;4998000;28;20477;-62
2021/08/18 10:13:20;;;;;;;1.30;1.30;;;21.80;99.90;;;;;;4997688;28;20821;-61
2021/08/18 10:15:47;;;;;;;1.30;1.30;;;21.70;99.90;;;;;;4997894;28;20454;-62
2021/08/18 10:18:28;;;;;;;1.40;1.40;;;21.60;99.90;;;;;;5005320;28;20454;-62
2021/08/18 10:20:59;;;;;;;2.10;1.43;;;21.50;99.90;;;;;;5000251;28;20484;-64
2021/08/18 10:24:00;;;;;;;1.50;1.40;;;21.30;99.90;;;;;;4998313;28;20930;-63
2021/08/18 10:26:49;;;;;;;1.20;1.20;;;21.10;99.90;;;;;;4918886;29;20476;-63
2021/08/18 10:29:19;;;;;;;1.50;1.50;;;21.00;99.90;;;;;;4918768;29;20964;-63
2021/08/18 10:32:09;;;;;;;1.50;1.50;;;21.00;99.90;;;;;;4967308;28;20536;-63
2021/08/18 10:34:40;;;;;;;1.80;1.33;;;21.00;99.90;;;;;;4997839;28;20452;-63
2021/08/18 10:37:18;;;;;;;1.63;1.60;;;21.20;99.90;;;;;;4997770;28;20501;-63
2021/08/18 10:39:51;;;;;;;1.30;1.30;;;21.90;99.90;;;;;;4997482;28;20781;-63
2021/08/18 10:42:31;;;;;;;1.47;1.40;;;23.10;99.90;;;;;;4997242;28;20477;-64
2021/08/18 10:44:58;;;;;;;1.50;1.30;;;24.10;99.90;;;;;;4997583;28;20465;-64
2021/08/18 10:47:26;;;;;;;1.63;1.53;;;25.70;99.90;;;;;;4997273;28;20557;-63
2021/08/18 10:49:56;;;;;;;1.30;1.30;;;26.60;99.90;;;;;;4997690;28;20459;-63
2021/08/18 10:52:54;;;;;;;1.30;1.30;;;27.50;99.90;;;;;;4997747;28;20473;-63
2021/08/18 10:55:31;;;;;;;1.10;1.10;;;28.30;99.90;;;;;;4997715;28;20465;-64
2021/08/18 10:57:59;;;;;;;1.27;1.27;;;28.00;99.20;;;;;;4997987;28;20430;-63
2021/08/18 11:00:35;;;;;;;1.30;1.20;;;27.70;99.90;;;;;;4997063;28;20456;-64
2021/08/18 11:03:03;;;;;;;1.30;1.30;;;27.80;99.90;;;;;;4997229;28;20438;-63
2021/08/18 11:05:50;;;;;;;1.30;1.30;;;27.90;99.00;;;;;;4997253;28;20449;-63
2021/08/18 11:08:19;;;;;;;1.30;1.30;;;27.40;98.90;;;;;;4996414;28;20473;-64
2021/08/18 11:11:10;;;;;;;1.07;1.07;;;27.10;99.30;;;;;;4996602;28;20500;-64
2021/08/18 11:13:41;;;;;;;1.57;1.47;;;27.00;99.90;;;;;;4986057;28;20453;-63
2021/08/18 11:16:10;;;;;;;1.50;1.50;;;27.10;99.90;;;;;;4996947;28;20449;-63
2021/08/18 11:18:38;;;;;;;1.47;1.47;;;27.70;99.70;;;;;;4996948;28;20461;-63
2021/08/18 11:21:16;;;;;;;1.90;1.60;;;28.00;98.90;;;;;;4996646;28;20984;-64
2021/08/18 11:23:49;;;;;;;1.70;1.70;;;27.50;98.80;;;;;;4996776;28;20853;-63
2021/08/18 11:26:19;;;;;;;1.20;1.20;;;27.60;99.10;;;;;;4996986;28;20457;-63
2021/08/18 11:28:52;;;;;;;1.27;1.27;;;27.10;99.00;;;;;;4997216;28;20457;-62
2021/08/18 11:31:28;;;;;;;1.57;1.57;;;26.50;98.70;;;;;;4996928;28;20840;-62
2021/08/18 11:33:55;;;;;;;1.43;1.43;;;25.70;99.90;;;;;;4997377;28;20442;-64
2021/08/18 11:36:24;;;;;;;1.50;1.50;;;25.30;99.90;;;;;;4996616;28;20503;-63
2021/08/18 11:38:59;;;;;;;1.90;1.30;;;25.60;99.90;;;;;;4996731;28;20512;-63
2021/08/18 11:41:33;;;;;;;1.10;1.10;;;25.80;99.90;;;;;;4996605;28;20504;-62
2021/08/18 11:44:00;;;;;;;2.73;1.20;;;25.50;99.90;;;;;;4996709;28;20457;-64
2021/08/18 11:46:27;;;;;;;1.17;1.17;;;25.30;99.90;;;;;;4996443;28;20492;-64
2021/08/18 11:49:03;;;;;;;0.90;0.90;;;24.80;99.90;;;;;;4996523;28;20461;-65
2021/08/18 11:51:31;;;;;;;1.50;1.30;;;24.70;99.90;;;;;;4996421;28;20496;-63
2021/08/18 11:53:57;;;;;;;1.20;1.20;;;24.90;99.90;;;;;;4996491;28;20516;-63
2021/08/18 11:56:26;;;;;;;1.10;1.10;;;25.00;99.90;;;;;;4996376;28;20462;-63
2021/08/18 11:58:57;;;;;;;1.30;1.30;;;25.20;99.90;;;;;;4996571;28;20937;-63
2021/08/18 12:01:25;;;;;;;4.20;1.60;;;25.40;99.90;;;;;;4996139;28;20524;-64
2021/08/18 12:03:52;;;;;;;2.00;1.30;;;25.10;99.90;;;;;;4995804;28;20824;-63
2021/08/18 12:06:31;;;;;;;1.20;1.20;;;25.00;99.90;;;;;;4996168;28;20458;-63
2021/08/18 12:08:58;;;;;;;1.40;1.40;;;25.00;99.90;;;;;;4996261;28;20917;-63
2021/08/18 12:11:32;;;;;;;1.77;1.67;;;25.50;99.90;;;;;;4996107;28;20841;-62
2021/08/18 12:14:10;;;;;;;1.17;1.17;;;25.80;99.90;;;;;;4996341;28;20583;-64
2021/08/18 12:16:37;;;;;;;1.83;1.50;;;25.90;99.90;;;;;;4996354;28;20852;-63
2021/08/18 12:19:24;;;;;;;2.00;1.73;;;25.90;99.90;;;;;;5004154;28;20458;-64
2021/08/18 12:22:23;;;;;;;1.30;1.30;;;25.90;99.90;;;;;;5011481;28;20866;-62
2021/08/18 12:24:54;;;;;;;1.50;1.30;;;25.60;99.90;;;;;;4989427;28;20941;-65
2021/08/18 12:27:23;;;;;;;1.47;1.37;;;25.40;99.90;;;;;;4995660;28;20469;-64
2021/08/18 12:30:02;;;;;;;1.40;1.40;;;25.30;99.90;;;;;;4995544;28;20444;-62
2021/08/18 12:32:29;;;;;;;1.07;1.07;;;24.90;99.90;;;;;;4995057;28;21000;-63
2021/08/18 12:35:00;;;;;;;1.53;1.23;;;24.50;99.90;;;;;;4995170;28;20534;-63
2021/08/18 12:37:29;;;;;;;1.50;1.50;;;24.30;99.90;;;;;;4995288;28;20461;-64
2021/08/18 12:39:58;;;;;;;1.40;1.40;;;24.30;99.90;;;;;;4995288;28;20450;-64
2021/08/18 12:42:27;;;;;;;1.70;1.50;;;24.20;99.90;;;;;;4995158;28;21000;-64
2021/08/18 12:45:07;;;;;;;1.40;1.40;;;24.30;99.90;;;;;;4995296;28;20458;-64
2021/08/18 12:47:36;;;;;;;1.57;1.47;;;24.50;99.90;;;;;;4995139;28;20469;-64
2021/08/18 12:50:04;;;;;;;1.00;1.00;;;24.70;99.90;;;;;;4995249;28;20477;-63
2021/08/18 12:52:31;;;;;;;1.23;1.23;;;25.00;99.90;;;;;;4994774;28;21003;-63
2021/08/18 12:55:01;;;;;;;1.30;1.20;;;25.10;99.90;;;;;;4994813;28;20961;-62
2021/08/18 12:57:28;;;;;;;1.27;1.27;;;25.20;99.90;;;;;;4995182;28;20469;-62
2021/08/18 12:59:55;;;;;;;1.20;1.20;;;25.50;99.90;;;;;;4995046;28;20453;-63
2021/08/18 13:02:21;;;;;;;1.80;1.70;;;25.60;99.90;;;;;;4994589;28;20493;-64
2021/08/18 13:04:48;;;;;;;1.90;1.50;;;25.40;99.90;;;;;;4995084;28;20465;-65
2021/08/18 13:07:15;;;;;;;1.10;1.10;;;25.60;99.90;;;;;;4994622;28;20908;-63
2021/08/18 13:09:42;;;;;;;1.50;1.50;;;25.50;99.90;;;;;;4994909;28;20458;-63
2021/08/18 13:12:10;;;;;;;1.80;1.70;;;25.30;99.90;;;;;;4995030;28;20474;-62
2021/08/18 13:14:37;;;;;;;1.30;1.30;;;24.90;99.90;;;;;;4995108;28;20454;-64
2021/08/18 13:17:04;;;;;;;1.23;1.23;;;24.70;99.90;;;;;;4994875;28;20462;-64
2021/08/18 13:19:31;;;;;;;1.27;1.20;;;24.60;99.90;;;;;;4994839;28;20454;-63
2021/08/18 13:21:57;;;;;;;1.40;1.40;;;24.60;99.90;;;;;;4994625;28;20477;-64
2021/08/18 13:24:24;;;;;;;1.30;1.30;;;24.70;99.90;;;;;;4995526;28;20462;-64
2021/08/18 13:26:53;;;;;;;1.40;1.30;;;24.70;99.90;;;;;;4994692;28;20462;-63
2021/08/18 13:29:21;;;;;;;1.60;1.50;;;24.60;99.90;;;;;;4994905;28;20933;-65
2021/08/18 13:31:48;;;;;;;2.10;1.47;;;24.60;99.90;;;;;;4994637;28;20516;-63
2021/08/18 13:34:15;;;;;;;1.20;1.20;;;24.70;99.90;;;;;;4993925;28;20454;-65
2021/08/18 13:36:43;;;;;;;2.80;1.50;;;24.80;99.90;;;;;;4994720;28;20454;-63
2021/08/18 13:39:10;;;;;;;2.47;1.47;;;24.90;99.90;;;;;;4994394;28;20490;-64
2021/08/18 13:41:39;;;;;;;1.57;1.47;;;24.90;99.90;;;;;;4994446;28;20481;-61
2021/08/18 13:44:06;;;;;;;2.00;1.90;;;24.90;99.90;;;;;;4994424;28;20449;-64
2021/08/18 13:46:35;;;;;;;1.80;1.30;;;24.70;99.90;;;;;;4994435;28;20485;-64
2021/08/18 13:49:03;;;;;;;1.60;1.50;;;24.70;99.90;;;;;;4994271;28;20478;-61
2021/08/18 13:51:31;;;;;;;2.10;1.40;;;24.40;99.90;;;;;;4993880;28;20481;-64
2021/08/18 13:53:58;;;;;;;1.63;1.53;;;24.30;99.90;;;;;;4994429;28;20454;-64
2021/08/18 13:56:24;;;;;;;1.57;1.57;;;24.20;99.90;;;;;;4994307;28;20457;-64
2021/08/18 13:58:51;;;;;;;1.63;1.63;;;24.20;99.90;;;;;;4994390;28;20450;-63
2021/08/18 14:01:19;;;;;;;1.23;1.13;;;24.20;99.90;;;;;;4994148;28;20989;-63
2021/08/18 14:03:47;;;;;;;2.30;1.50;;;24.20;99.90;;;;;;4994197;28;20461;-63
2021/08/18 14:06:15;;;;;;;1.40;1.40;;;24.20;99.90;;;;;;4994184;28;20454;-62
2021/08/18 14:08:43;;;;;;;1.23;1.23;;;24.30;99.90;;;;;;4994247;28;20496;-62
2021/08/18 14:11:11;;;;;;;1.37;1.27;;;24.40;99.90;;;;;;4994113;28;20561;-61
2021/08/18 14:13:37;;;;;;;1.30;1.20;;;24.40;99.90;;;;;;4994151;28;20457;-62
2021/08/18 14:16:06;;;;;;;1.40;1.40;;;24.40;99.90;;;;;;4994044;28;20460;-61
2021/08/18 14:18:33;;;;;;;1.20;1.10;;;24.10;99.90;;;;;;4994468;28;20852;-62
2021/08/18 14:21:01;;;;;;;1.20;1.20;;;24.10;99.90;;;;;;4994980;28;20477;-61
2021/08/18 14:23:29;;;;;;;1.03;1.03;;;24.10;99.90;;;;;;4994102;28;20461;-61
2021/08/18 14:25:56;;;;;;;1.00;1.00;;;24.00;99.90;;;;;;4993762;28;20525;-62
2021/08/18 14:28:23;;;;;;;1.20;1.20;;;24.10;99.90;;;;;;4993955;28;20473;-61
2021/08/18 14:30:50;;;;;;;2.13;1.27;;;24.10;99.90;;;;;;4993979;28;20474;-62
2021/08/18 14:33:17;;;;;;;1.33;1.33;;;24.20;99.90;;;;;;4993667;28;20941;-62
2021/08/18 14:35:43;;;;;;;1.40;1.10;;;23.90;99.90;;;;;;4993674;28;20941;-62
2021/08/18 14:38:11;;;;;;;7.10;2.67;;;23.80;99.90;;;;;;4993862;28;20454;-62
2021/08/18 14:40:38;;;;;;;1.60;1.50;;;23.70;99.90;;;;;;5006439;28;20478;-62
2021/08/18 14:43:05;;;;;;;4.10;1.73;;;23.60;99.90;;;;;;5003184;28;20970;-62
2021/08/18 14:45:32;;;;;;;1.50;1.40;;;23.50;99.90;;;;;;4994542;28;20450;-62
2021/08/18 14:47:59;;;;;;;0.87;0.87;;;23.30;99.90;;;;;;4997343;28;20482;-63
2021/08/18 14:50:26;;;;;;;1.20;1.10;;;23.20;99.90;;;;;;4997229;28;20472;-63
2021/08/18 14:52:52;;;;;;;1.30;1.30;;;23.20;99.90;;;;;;4996878;28;20937;-64
2021/08/18 14:55:21;;;;;;;2.97;1.30;;;23.00;99.90;;;;;;4997366;28;20453;-64
2021/08/18 14:57:48;;;;;;;2.00;1.80;;;22.90;99.90;;;;;;4997520;28;20453;-64
2021/08/18 15:00:15;;;;;;;1.80;1.70;;;22.80;99.90;;;;;;4997010;28;20861;-62
2021/08/18 15:02:42;;;;;;;1.37;1.37;;;22.80;99.90;;;;;;4997259;28;20438;-62
2021/08/18 15:05:10;;;;;;;1.73;1.63;;;22.70;99.90;;;;;;4996990;28;20458;-62
2021/08/18 15:07:37;;;;;;;1.80;1.33;;;22.60;99.90;;;;;;4997014;28;20482;-62
2021/08/18 15:10:04;;;;;;;1.60;1.50;;;22.70;99.90;;;;;;4996749;28;20965;-62
2021/08/18 15:12:34;;;;;;;2.10;1.70;;;22.80;99.90;;;;;;4997011;28;20473;-62
2021/08/18 15:15:01;;;;;;;1.87;1.77;;;22.80;99.90;;;;;;4997141;28;20438;-62
2021/08/18 15:17:28;;;;;;;1.50;1.50;;;22.90;99.90;;;;;;4997037;28;20468;-63
2021/08/18 15:19:55;;;;;;;1.77;1.67;;;22.90;99.90;;;;;;4997027;28;20450;-63
2021/08/18 15:22:22;;;;;;;2.00;1.47;;;22.80;99.90;;;;;;4996613;28;20474;-62
2021/08/18 15:24:48;;;;;;;1.70;1.70;;;22.70;99.90;;;;;;4996718;28;20949;-63
2021/08/18 15:27:16;;;;;;;1.97;1.87;;;22.70;99.90;;;;;;4997359;28;20483;-63
2021/08/18 15:29:45;;;;;;;3.03;1.57;;;22.70;99.90;;;;;;4996732;28;20461;-63
2021/08/18 15:32:11;;;;;;;1.57;1.47;;;22.70;99.90;;;;;;4996697;28;20524;-63
2021/08/18 15:34:38;;;;;;;1.63;1.53;;;22.70;99.90;;;;;;4996966;28;20454;-64
2021/08/18 15:37:05;;;;;;;1.40;1.40;;;22.70;99.90;;;;;;4997193;28;20453;-62
2021/08/18 15:39:32;;;;;;;1.50;1.47;;;22.80;99.90;;;;;;5013155;28;20450;-63
2021/08/18 15:41:59;;;;;;;2.10;2.00;;;22.70;99.90;;;;;;5005687;28;20485;-64
2021/08/18 15:44:26;;;;;;;2.00;1.90;;;22.70;99.90;;;;;;4996767;28;20868;-64
2021/08/18 15:46:54;;;;;;;2.63;2.00;;;22.70;99.90;;;;;;4996310;28;20457;-64
2021/08/18 15:49:21;;;;;;;1.90;1.80;;;22.70;99.90;;;;;;4996195;28;20482;-64
2021/08/18 15:51:48;;;;;;;1.70;1.60;;;22.80;99.90;;;;;;4995772;28;21003;-65
2021/08/18 15:54:14;;;;;;;1.30;1.30;;;23.00;99.90;;;;;;4996120;28;20454;-64
2021/08/18 15:56:41;;;;;;;1.40;1.40;;;23.20;99.90;;;;;;4996009;28;20460;-62
2021/08/18 15:59:08;;;;;;;1.87;1.83;;;23.50;99.90;;;;;;4995584;28;20454;-64
2021/08/18 16:01:35;;;;;;;4.03;2.10;;;23.60;99.90;;;;;;4995734;28;20508;-64
2021/08/18 16:04:03;;;;;;;1.87;1.70;;;23.80;99.90;;;;;;4997025;28;20786;-64
2021/08/18 16:06:30;;;;;;;2.00;1.90;;;23.90;99.90;;;;;;4996071;28;20457;-64
2021/08/18 16:08:57;;;;;;;2.13;1.87;;;23.90;99.90;;;;;;4995947;28;20489;-64
2021/08/18 16:11:24;;;;;;;2.00;1.90;;;23.90;99.90;;;;;;4995661;28;20888;-62
2021/08/18 16:13:50;;;;;;;2.80;2.20;;;23.80;99.90;;;;;;4995764;28;20465;-62
2021/08/18 16:16:17;;;;;;;1.60;1.60;;;23.60;99.90;;;;;;4995678;28;20465;-64
2021/08/18 16:18:44;;;;;;;3.77;2.10;;;23.50;99.90;;;;;;4995427;28;21009;-64
2021/08/18 16:21:12;;;;;;;2.20;1.87;;;23.30;99.90;;;;;;4996229;28;20488;-64
2021/08/18 16:23:39;;;;;;;1.90;1.80;;;23.20;99.90;;;;;;4995574;28;20866;-64
2021/08/18 16:26:07;;;;;;;1.67;1.50;;;23.10;99.90;;;;;;4995328;28;20838;-64
2021/08/18 16:28:34;;;;;;;1.73;1.63;;;22.90;99.90;;;;;;4995445;28;20477;-64
2021/08/18 16:31:00;;;;;;;2.03;1.93;;;22.70;99.90;;;;;;4995620;28;20481;-63
2021/08/18 16:33:27;;;;;;;2.07;1.80;;;22.70;99.90;;;;;;4995445;28;20457;-63
2021/08/18 16:35:54;;;;;;;2.10;2.00;;;22.70;99.90;;;;;;4995389;28;20457;-63
2021/08/18 16:38:22;;;;;;;4.43;2.30;;;22.60;99.90;;;;;;4995181;28;20457;-63
2021/08/18 16:40:48;;;;;;;3.67;2.23;;;22.50;99.90;;;;;;4995226;28;20481;-63
2021/08/18 16:43:15;;;;;;;2.30;1.50;;;22.40;99.90;;;;;;4995191;28;20464;-63
2021/08/18 16:45:44;;;;;;;2.47;2.13;;;22.40;99.90;;;;;;4994779;28;20848;-63
2021/08/18 16:48:11;;;;;;;2.23;2.03;;;22.30;99.90;;;;;;4994897;28;20478;-63
2021/08/18 16:50:37;;;;;;;1.77;1.67;;;22.20;99.90;;;;;;4994997;28;20480;-63
2021/08/18 16:53:04;;;;;;;1.87;1.77;;;22.20;99.90;;;;;;4995165;28;20454;-63